sensor_id;sensor_type;location;lat;lon;timestamp;pressure;altitude;pressure_sealevel;temperature;humidity
46690;BME280;32423;45.398;10.874;2022-10-16T00:01:37;101195.88;;;15.57;76.97
46690;BME280;32423;45.398;10.874;2022-10-16T00:04:22;101198.06;;;15.43;77.50
46690;BME280;32423;45.398;10.874;2022-10-16T00:07:06;101197.28;;;15.21;78.48
46690;BME280;32423;45.398;10.874;2022-10-16T00:09:51;101195.94;;;15.27;78.44
46690;BME280;32423;45.398;10.874;2022-10-16T00:12:35;101199.22;;;15.41;77.97
46690;BME280;32423;45.398;10.874;2022-10-16T00:15:19;101193.44;;;15.34;78.07
46690;BME280;32423;45.398;10.874;2022-10-16T00:18:04;101199.72;;;15.35;78.17
46690;BME280;32423;45.398;10.874;2022-10-16T00:20:51;101198.13;;;15.34;78.35
46690;BME280;32423;45.398;10.874;2022-10-16T00:23:35;101198.72;;;15.39;78.00
46690;BME280;32423;45.398;10.874;2022-10-16T00:26:20;101204.00;;;15.45;77.49
46690;BME280;32423;45.398;10.874;2022-10-16T00:29:05;101198.06;;;15.43;77.89
46690;BME280;32423;45.398;10.874;2022-10-16T00:31:50;101207.16;;;15.55;77.50
46690;BME280;32423;45.398;10.874;2022-10-16T00:34:34;101208.03;;;15.47;77.47
46690;BME280;32423;45.398;10.874;2022-10-16T00:37:19;101200.94;;;15.46;77.58
46690;BME280;32423;45.398;10.874;2022-10-16T00:40:03;101202.44;;;15.44;77.46
46690;BME280;32423;45.398;10.874;2022-10-16T00:42:48;101196.19;;;15.34;77.97
46690;BME280;32423;45.398;10.874;2022-10-16T00:45:33;101201.47;;;15.39;78.01
46690;BME280;32423;45.398;10.874;2022-10-16T00:48:18;101201.34;;;15.36;78.00
46690;BME280;32423;45.398;10.874;2022-10-16T00:51:04;101198.22;;;15.25;78.31
46690;BME280;32423;45.398;10.874;2022-10-16T00:53:49;101193.00;;;15.32;78.35
46690;BME280;32423;45.398;10.874;2022-10-16T00:56:34;101192.72;;;15.25;78.61
46690;BME280;32423;45.398;10.874;2022-10-16T00:59:20;101199.13;;;15.09;79.29
46690;BME280;32423;45.398;10.874;2022-10-16T01:02:06;101208.09;;;14.97;79.88
46690;BME280;32423;45.398;10.874;2022-10-16T01:04:52;101199.19;;;14.79;80.71
46690;BME280;32423;45.398;10.874;2022-10-16T01:10:30;101200.38;;;14.70;81.28
46690;BME280;32423;45.398;10.874;2022-10-16T01:13:21;101194.69;;;14.75;80.99
46690;BME280;32423;45.398;10.874;2022-10-16T01:16:11;101199.53;;;14.78;80.90
46690;BME280;32423;45.398;10.874;2022-10-16T01:19:00;101203.00;;;14.87;80.42
46690;BME280;32423;45.398;10.874;2022-10-16T01:21:46;101200.41;;;14.90;80.06
46690;BME280;32423;45.398;10.874;2022-10-16T01:24:39;101203.56;;;15.01;79.74
46690;BME280;32423;45.398;10.874;2022-10-16T01:27:25;101203.56;;;15.01;79.59
46690;BME280;32423;45.398;10.874;2022-10-16T01:30:15;101201.22;;;15.12;79.04
46690;BME280;32423;45.398;10.874;2022-10-16T01:33:03;101204.34;;;15.02;79.42
46690;BME280;32423;45.398;10.874;2022-10-16T01:35:52;101199.19;;;15.00;79.60
46690;BME280;32423;45.398;10.874;2022-10-16T01:38:39;101195.81;;;15.03;79.53
46690;BME280;32423;45.398;10.874;2022-10-16T01:41:30;101205.22;;;15.14;79.41
46690;BME280;32423;45.398;10.874;2022-10-16T01:44:25;101208.75;;;15.15;79.30
46690;BME280;32423;45.398;10.874;2022-10-16T01:47:12;101201.28;;;15.24;79.05
46690;BME280;32423;45.398;10.874;2022-10-16T01:49:57;101207.16;;;15.34;78.94
46690;BME280;32423;45.398;10.874;2022-10-16T01:52:45;101201.16;;;15.41;78.80
46690;BME280;32423;45.398;10.874;2022-10-16T01:55:32;101206.91;;;15.48;78.32
46690;BME280;32423;45.398;10.874;2022-10-16T01:58:18;101206.09;;;15.48;78.51
46690;BME280;32423;45.398;10.874;2022-10-16T02:01:03;101212.81;;;15.59;77.81
46690;BME280;32423;45.398;10.874;2022-10-16T02:03:49;101209.69;;;15.60;77.67
46690;BME280;32423;45.398;10.874;2022-10-16T02:06:36;101213.97;;;15.70;77.18
46690;BME280;32423;45.398;10.874;2022-10-16T02:09:20;101213.41;;;15.76;76.83
46690;BME280;32423;45.398;10.874;2022-10-16T02:12:13;101212.06;;;15.82;76.58
46690;BME280;32423;45.398;10.874;2022-10-16T02:14:59;101217.28;;;15.75;76.70
46690;BME280;32423;45.398;10.874;2022-10-16T02:17:44;101208.06;;;15.80;76.73
46690;BME280;32423;45.398;10.874;2022-10-16T02:20:30;101212.91;;;15.62;77.33
46690;BME280;32423;45.398;10.874;2022-10-16T02:23:18;101213.19;;;15.69;77.38
46690;BME280;32423;45.398;10.874;2022-10-16T02:26:04;101215.41;;;15.88;76.86
46690;BME280;32423;45.398;10.874;2022-10-16T02:28:52;101212.78;;;15.92;77.03
46690;BME280;32423;45.398;10.874;2022-10-16T02:31:41;101212.91;;;15.95;77.13
46690;BME280;32423;45.398;10.874;2022-10-16T02:34:26;101215.63;;;15.95;77.23
46690;BME280;32423;45.398;10.874;2022-10-16T02:37:12;101218.38;;;15.95;77.29
46690;BME280;32423;45.398;10.874;2022-10-16T02:39:57;101216.13;;;15.97;77.03
46690;BME280;32423;45.398;10.874;2022-10-16T02:42:42;101218.97;;;16.01;76.44
46690;BME280;32423;45.398;10.874;2022-10-16T02:45:26;101222.06;;;15.99;76.37
46690;BME280;32423;45.398;10.874;2022-10-16T02:48:11;101218.84;;;15.97;76.68
46690;BME280;32423;45.398;10.874;2022-10-16T02:50:55;101225.25;;;16.01;76.60
46690;BME280;32423;45.398;10.874;2022-10-16T02:53:41;101229.06;;;16.09;76.24
46690;BME280;32423;45.398;10.874;2022-10-16T02:56:25;101222.66;;;16.05;76.22
46690;BME280;32423;45.398;10.874;2022-10-16T02:59:10;101234.41;;;15.93;76.72
46690;BME280;32423;45.398;10.874;2022-10-16T03:01:54;101235.53;;;15.92;76.93
46690;BME280;32423;45.398;10.874;2022-10-16T03:04:39;101233.91;;;15.91;76.95
46690;BME280;32423;45.398;10.874;2022-10-16T03:07:23;101231.16;;;15.79;77.62
46690;BME280;32423;45.398;10.874;2022-10-16T03:10:08;101230.94;;;15.84;77.61
46690;BME280;32423;45.398;10.874;2022-10-16T03:12:52;101230.88;;;15.72;78.35
46690;BME280;32423;45.398;10.874;2022-10-16T03:15:37;101232.63;;;15.76;78.39
46690;BME280;32423;45.398;10.874;2022-10-16T03:18:21;101230.84;;;15.93;78.25
46690;BME280;32423;45.398;10.874;2022-10-16T03:21:05;101235.56;;;16.04;77.73
46690;BME280;32423;45.398;10.874;2022-10-16T03:23:50;101238.88;;;15.98;77.59
46690;BME280;32423;45.398;10.874;2022-10-16T03:26:34;101228.47;;;16.03;78.50
46690;BME280;32423;45.398;10.874;2022-10-16T03:29:19;101237.97;;;16.06;78.46
46690;BME280;32423;45.398;10.874;2022-10-16T03:32:03;101237.53;;;16.16;78.34
46690;BME280;32423;45.398;10.874;2022-10-16T03:34:48;101235.81;;;16.11;78.24
46690;BME280;32423;45.398;10.874;2022-10-16T03:37:32;101240.19;;;16.24;77.72
46690;BME280;32423;45.398;10.874;2022-10-16T03:40:17;101242.34;;;16.19;78.14
46690;BME280;32423;45.398;10.874;2022-10-16T03:43:02;101243.66;;;16.01;77.84
46690;BME280;32423;45.398;10.874;2022-10-16T03:45:46;101239.19;;;15.96;77.81
46690;BME280;32423;45.398;10.874;2022-10-16T03:48:31;101236.00;;;15.94;78.02
46690;BME280;32423;45.398;10.874;2022-10-16T03:51:16;101242.53;;;16.02;77.86
46690;BME280;32423;45.398;10.874;2022-10-16T03:54:01;101246.56;;;16.04;77.80
46690;BME280;32423;45.398;10.874;2022-10-16T03:56:45;101251.88;;;16.01;78.03
46690;BME280;32423;45.398;10.874;2022-10-16T03:59:30;101245.97;;;16.11;77.61
46690;BME280;32423;45.398;10.874;2022-10-16T04:02:14;101241.28;;;16.11;77.43
46690;BME280;32423;45.398;10.874;2022-10-16T04:04:59;101242.19;;;16.03;77.59
46690;BME280;32423;45.398;10.874;2022-10-16T04:07:44;101248.09;;;15.93;78.47
46690;BME280;32423;45.398;10.874;2022-10-16T04:10:28;101247.41;;;15.84;78.93
46690;BME280;32423;45.398;10.874;2022-10-16T04:13:13;101246.19;;;15.94;78.56
46690;BME280;32423;45.398;10.874;2022-10-16T04:15:57;101257.75;;;15.99;78.20
46690;BME280;32423;45.398;10.874;2022-10-16T04:18:41;101254.69;;;16.13;77.98
46690;BME280;32423;45.398;10.874;2022-10-16T04:21:26;101258.41;;;15.96;78.53
46690;BME280;32423;45.398;10.874;2022-10-16T04:24:10;101262.53;;;15.49;81.16
46690;BME280;32423;45.398;10.874;2022-10-16T04:26:55;101254.94;;;15.54;81.36
46690;BME280;32423;45.398;10.874;2022-10-16T04:29:40;101256.50;;;15.76;80.27
46690;BME280;32423;45.398;10.874;2022-10-16T04:32:24;101263.38;;;15.82;79.87
46690;BME280;32423;45.398;10.874;2022-10-16T04:35:08;101265.81;;;15.96;79.34
46690;BME280;32423;45.398;10.874;2022-10-16T04:37:53;101276.13;;;15.99;78.69
46690;BME280;32423;45.398;10.874;2022-10-16T04:40:37;101277.09;;;15.82;79.50
46690;BME280;32423;45.398;10.874;2022-10-16T04:43:22;101275.06;;;15.91;78.93
46690;BME280;32423;45.398;10.874;2022-10-16T04:46:06;101281.25;;;15.88;79.13
46690;BME280;32423;45.398;10.874;2022-10-16T04:48:51;101281.06;;;16.05;78.37
46690;BME280;32423;45.398;10.874;2022-10-16T04:51:35;101281.19;;;16.09;78.03
46690;BME280;32423;45.398;10.874;2022-10-16T04:54:20;101287.19;;;16.23;77.98
46690;BME280;32423;45.398;10.874;2022-10-16T04:57:04;101286.81;;;16.12;78.21
46690;BME280;32423;45.398;10.874;2022-10-16T04:59:49;101294.66;;;16.02;78.00
46690;BME280;32423;45.398;10.874;2022-10-16T05:02:34;101294.06;;;15.96;78.35
46690;BME280;32423;45.398;10.874;2022-10-16T05:05:18;101296.56;;;15.89;79.01
46690;BME280;32423;45.398;10.874;2022-10-16T05:08:07;101301.91;;;15.86;79.14
46690;BME280;32423;45.398;10.874;2022-10-16T05:10:51;101296.09;;;15.87;79.14
46690;BME280;32423;45.398;10.874;2022-10-16T05:13:36;101295.28;;;15.87;79.70
46690;BME280;32423;45.398;10.874;2022-10-16T05:16:20;101294.06;;;15.96;79.43
46690;BME280;32423;45.398;10.874;2022-10-16T05:19:05;101300.16;;;15.81;80.02
46690;BME280;32423;45.398;10.874;2022-10-16T05:21:49;101294.34;;;15.82;80.05
46690;BME280;32423;45.398;10.874;2022-10-16T05:24:33;101294.63;;;15.90;79.74
46690;BME280;32423;45.398;10.874;2022-10-16T05:27:19;101296.19;;;15.91;80.01
46690;BME280;32423;45.398;10.874;2022-10-16T05:30:03;101293.50;;;16.03;79.24
46690;BME280;32423;45.398;10.874;2022-10-16T05:32:49;101290.09;;;16.06;78.58
46690;BME280;32423;45.398;10.874;2022-10-16T05:35:34;101300.22;;;15.93;79.23
46690;BME280;32423;45.398;10.874;2022-10-16T05:38:18;101296.34;;;15.94;79.26
46690;BME280;32423;45.398;10.874;2022-10-16T05:41:03;101299.22;;;15.98;78.86
46690;BME280;32423;45.398;10.874;2022-10-16T05:43:48;101305.72;;;15.93;79.03
46690;BME280;32423;45.398;10.874;2022-10-16T05:46:33;101306.44;;;16.02;78.71
46690;BME280;32423;45.398;10.874;2022-10-16T05:49:18;101316.47;;;15.98;78.98
46690;BME280;32423;45.398;10.874;2022-10-16T05:52:02;101321.53;;;16.08;78.35
46690;BME280;32423;45.398;10.874;2022-10-16T05:54:47;101325.91;;;16.09;78.44
46690;BME280;32423;45.398;10.874;2022-10-16T05:57:31;101322.28;;;15.97;79.17
46690;BME280;32423;45.398;10.874;2022-10-16T06:00:16;101328.91;;;15.96;79.76
46690;BME280;32423;45.398;10.874;2022-10-16T06:03:00;101327.06;;;16.20;78.70
46690;BME280;32423;45.398;10.874;2022-10-16T06:05:44;101325.06;;;16.30;78.51
46690;BME280;32423;45.398;10.874;2022-10-16T06:08:29;101335.84;;;16.47;77.76
46690;BME280;32423;45.398;10.874;2022-10-16T06:11:15;101334.81;;;16.39;78.41
46690;BME280;32423;45.398;10.874;2022-10-16T06:14:00;101339.69;;;16.66;77.55
46690;BME280;32423;45.398;10.874;2022-10-16T06:16:46;101335.69;;;16.64;77.63
46690;BME280;32423;45.398;10.874;2022-10-16T06:19:31;101340.88;;;16.57;77.71
46690;BME280;32423;45.398;10.874;2022-10-16T06:22:16;101344.59;;;16.61;78.21
46690;BME280;32423;45.398;10.874;2022-10-16T06:25:00;101350.00;;;16.70;77.76
46690;BME280;32423;45.398;10.874;2022-10-16T06:27:44;101362.47;;;16.67;77.19
46690;BME280;32423;45.398;10.874;2022-10-16T06:30:29;101360.41;;;16.64;77.54
46690;BME280;32423;45.398;10.874;2022-10-16T06:33:13;101366.84;;;16.92;76.62
46690;BME280;32423;45.398;10.874;2022-10-16T06:38:49;101374.28;;;16.80;76.71
46690;BME280;32423;45.398;10.874;2022-10-16T06:41:34;101372.44;;;16.84;76.33
46690;BME280;32423;45.398;10.874;2022-10-16T06:44:28;101374.88;;;16.85;76.60
46690;BME280;32423;45.398;10.874;2022-10-16T06:47:13;101386.50;;;16.82;78.38
46690;BME280;32423;45.398;10.874;2022-10-16T06:49:58;101389.66;;;17.05;77.05
46690;BME280;32423;45.398;10.874;2022-10-16T06:52:42;101392.06;;;17.06;76.68
46690;BME280;32423;45.398;10.874;2022-10-16T06:55:27;101395.28;;;17.21;75.98
46690;BME280;32423;45.398;10.874;2022-10-16T06:58:12;101401.34;;;17.26;75.39
46690;BME280;32423;45.398;10.874;2022-10-16T07:00:56;101407.88;;;17.46;74.73
46690;BME280;32423;45.398;10.874;2022-10-16T07:03:42;101412.44;;;17.54;74.23
46690;BME280;32423;45.398;10.874;2022-10-16T07:06:26;101416.69;;;17.64;74.17
46690;BME280;32423;45.398;10.874;2022-10-16T07:09:11;101422.19;;;17.64;73.59
46690;BME280;32423;45.398;10.874;2022-10-16T07:11:59;101424.22;;;17.91;72.79
46690;BME280;32423;45.398;10.874;2022-10-16T07:14:43;101438.63;;;18.12;72.01
46690;BME280;32423;45.398;10.874;2022-10-16T07:17:27;101438.88;;;18.35;70.90
46690;BME280;32423;45.398;10.874;2022-10-16T07:20:12;101443.75;;;18.26;71.35
46690;BME280;32423;45.398;10.874;2022-10-16T07:22:56;101452.66;;;18.35;71.16
46690;BME280;32423;45.398;10.874;2022-10-16T07:25:41;101453.22;;;18.41;71.00
46690;BME280;32423;45.398;10.874;2022-10-16T07:28:25;101459.94;;;18.55;70.44
46690;BME280;32423;45.398;10.874;2022-10-16T07:31:11;101462.59;;;18.52;70.09
46690;BME280;32423;45.398;10.874;2022-10-16T07:33:57;101472.41;;;18.65;70.20
46690;BME280;32423;45.398;10.874;2022-10-16T07:36:41;101473.13;;;18.62;69.70
46690;BME280;32423;45.398;10.874;2022-10-16T07:39:26;101479.84;;;18.76;68.87
46690;BME280;32423;45.398;10.874;2022-10-16T07:42:11;101474.63;;;18.59;68.85
46690;BME280;32423;45.398;10.874;2022-10-16T07:44:55;101482.75;;;18.28;71.00
46690;BME280;32423;45.398;10.874;2022-10-16T07:47:39;101477.38;;;18.19;71.19
46690;BME280;32423;45.398;10.874;2022-10-16T07:50:24;101471.78;;;18.56;70.08
46690;BME280;32423;45.398;10.874;2022-10-16T07:53:08;101479.03;;;18.48;69.34
46690;BME280;32423;45.398;10.874;2022-10-16T07:55:57;101477.97;;;18.53;69.18
46690;BME280;32423;45.398;10.874;2022-10-16T07:58:42;101485.69;;;18.47;69.90
46690;BME280;32423;45.398;10.874;2022-10-16T08:01:27;101486.44;;;18.88;68.88
46690;BME280;32423;45.398;10.874;2022-10-16T08:04:11;101498.88;;;18.82;68.25
46690;BME280;32423;45.398;10.874;2022-10-16T08:06:55;101499.88;;;18.49;69.72
46690;BME280;32423;45.398;10.874;2022-10-16T08:09:40;101506.41;;;18.17;70.18
46690;BME280;32423;45.398;10.874;2022-10-16T08:12:25;101500.94;;;18.45;69.22
46690;BME280;32423;45.398;10.874;2022-10-16T08:15:10;101504.09;;;18.99;66.76
46690;BME280;32423;45.398;10.874;2022-10-16T08:17:55;101508.41;;;19.43;65.57
46690;BME280;32423;45.398;10.874;2022-10-16T08:20:40;101504.75;;;19.39;65.59
46690;BME280;32423;45.398;10.874;2022-10-16T08:23:26;101512.25;;;19.86;64.08
46690;BME280;32423;45.398;10.874;2022-10-16T08:26:11;101511.97;;;19.91;63.72
46690;BME280;32423;45.398;10.874;2022-10-16T08:28:55;101505.72;;;19.94;63.51
46690;BME280;32423;45.398;10.874;2022-10-16T08:31:40;101508.66;;;20.01;63.39
46690;BME280;32423;45.398;10.874;2022-10-16T08:34:24;101522.19;;;19.90;62.46
46690;BME280;32423;45.398;10.874;2022-10-16T08:37:09;101515.72;;;20.18;61.66
46690;BME280;32423;45.398;10.874;2022-10-16T08:39:55;101512.38;;;20.43;60.48
46690;BME280;32423;45.398;10.874;2022-10-16T08:48:26;101521.63;;;20.70;59.59
46690;BME280;32423;45.398;10.874;2022-10-16T08:51:19;101511.38;;;21.32;57.11
46690;BME280;32423;45.398;10.874;2022-10-16T08:54:08;101514.41;;;21.50;56.41
46690;BME280;32423;45.398;10.874;2022-10-16T08:56:56;101510.38;;;21.21;56.72
46690;BME280;32423;45.398;10.874;2022-10-16T08:59:45;101517.31;;;20.92;58.22
46690;BME280;32423;45.398;10.874;2022-10-16T09:02:42;101512.94;;;21.56;56.95
46690;BME280;32423;45.398;10.874;2022-10-16T09:08:17;101507.31;;;21.75;54.19
46690;BME280;32423;45.398;10.874;2022-10-16T09:11:14;101515.91;;;21.44;54.78
46690;BME280;32423;45.398;10.874;2022-10-16T09:14:07;101523.69;;;21.84;54.06
46690;BME280;32423;45.398;10.874;2022-10-16T09:17:01;101520.31;;;21.71;54.89
46690;BME280;32423;45.398;10.874;2022-10-16T09:19:56;101511.41;;;21.58;54.84
46690;BME280;32423;45.398;10.874;2022-10-16T09:22:44;101511.16;;;21.44;55.19
46690;BME280;32423;45.398;10.874;2022-10-16T09:25:29;101513.41;;;22.10;52.72
46690;BME280;32423;45.398;10.874;2022-10-16T09:28:15;101515.28;;;21.54;54.62
46690;BME280;32423;45.398;10.874;2022-10-16T09:30:59;101515.22;;;22.26;52.94
46690;BME280;32423;45.398;10.874;2022-10-16T09:33:45;101517.16;;;22.22;52.89
46690;BME280;32423;45.398;10.874;2022-10-16T09:36:35;101513.50;;;22.44;52.19
46690;BME280;32423;45.398;10.874;2022-10-16T09:39:23;101514.75;;;22.20;53.00
46690;BME280;32423;45.398;10.874;2022-10-16T09:42:09;101509.63;;;22.52;52.16
46690;BME280;32423;45.398;10.874;2022-10-16T09:44:55;101512.66;;;23.07;50.49
46690;BME280;32423;45.398;10.874;2022-10-16T09:47:40;101509.41;;;22.34;53.11
46690;BME280;32423;45.398;10.874;2022-10-16T09:50:27;101509.97;;;22.47;52.38
46690;BME280;32423;45.398;10.874;2022-10-16T09:53:12;101513.56;;;22.51;51.99
46690;BME280;32423;45.398;10.874;2022-10-16T09:55:58;101514.09;;;22.60;52.26
46690;BME280;32423;45.398;10.874;2022-10-16T09:58:43;101518.38;;;22.54;52.10
46690;BME280;32423;45.398;10.874;2022-10-16T10:01:36;101519.03;;;22.44;51.84
46690;BME280;32423;45.398;10.874;2022-10-16T10:04:23;101519.31;;;22.65;51.46
46690;BME280;32423;45.398;10.874;2022-10-16T10:07:15;101513.16;;;22.49;51.59
46690;BME280;32423;45.398;10.874;2022-10-16T10:10:04;101516.69;;;23.13;49.98
46690;BME280;32423;45.398;10.874;2022-10-16T10:12:49;101509.25;;;22.83;51.39
46690;BME280;32423;45.398;10.874;2022-10-16T10:15:34;101518.19;;;23.03;50.54
46690;BME280;32423;45.398;10.874;2022-10-16T10:18:20;101514.38;;;23.18;50.20
46690;BME280;32423;45.398;10.874;2022-10-16T10:21:12;101509.19;;;23.17;50.19
46690;BME280;32423;45.398;10.874;2022-10-16T10:23:58;101508.16;;;23.32;50.08
46690;BME280;32423;45.398;10.874;2022-10-16T10:26:48;101503.34;;;23.25;49.79
46690;BME280;32423;45.398;10.874;2022-10-16T10:35:22;101502.16;;;23.67;48.89
46690;BME280;32423;45.398;10.874;2022-10-16T10:46:50;101498.31;;;23.85;48.27
46690;BME280;32423;45.398;10.874;2022-10-16T10:49:39;101496.84;;;24.02;48.84
46690;BME280;32423;45.398;10.874;2022-10-16T11:01:26;101501.25;;;25.00;45.79
46690;BME280;32423;45.398;10.874;2022-10-16T11:06:59;101496.47;;;26.14;42.81
46690;BME280;32423;45.398;10.874;2022-10-16T11:09:47;101495.66;;;26.28;43.01
46690;BME280;32423;45.398;10.874;2022-10-16T11:12:41;101494.09;;;26.23;42.97
46690;BME280;32423;45.398;10.874;2022-10-16T11:15:31;101499.75;;;25.67;44.25
46690;BME280;32423;45.398;10.874;2022-10-16T11:18:17;101504.47;;;25.17;45.22
46690;BME280;32423;45.398;10.874;2022-10-16T11:21:07;101506.72;;;24.68;46.78
46690;BME280;32423;45.398;10.874;2022-10-16T11:24:01;101500.91;;;24.19;48.32
46690;BME280;32423;45.398;10.874;2022-10-16T11:26:49;101499.28;;;25.01;46.36
46690;BME280;32423;45.398;10.874;2022-10-16T11:29:36;101494.44;;;24.04;47.81
46690;BME280;32423;45.398;10.874;2022-10-16T11:32:34;101494.28;;;24.48;47.19
46690;BME280;32423;45.398;10.874;2022-10-16T11:35:33;101495.56;;;24.58;46.49
46690;BME280;32423;45.398;10.874;2022-10-16T11:38:32;101491.47;;;24.34;47.67
46690;BME280;32423;45.398;10.874;2022-10-16T11:41:22;101494.00;;;24.75;46.64
46690;BME280;32423;45.398;10.874;2022-10-16T11:49:59;101483.75;;;26.06;43.11
46690;BME280;32423;45.398;10.874;2022-10-16T11:52:51;101487.00;;;25.90;43.91
46690;BME280;32423;45.398;10.874;2022-10-16T11:55:39;101486.97;;;26.99;41.17
46690;BME280;32423;45.398;10.874;2022-10-16T11:58:29;101491.13;;;28.55;38.04
46690;BME280;32423;45.398;10.874;2022-10-16T12:04:22;101493.34;;;31.28;32.92
46690;BME280;32423;45.398;10.874;2022-10-16T12:07:09;101508.81;;;34.04;28.48
46690;BME280;32423;45.398;10.874;2022-10-16T12:09:56;101501.44;;;32.87;28.98
46690;BME280;32423;45.398;10.874;2022-10-16T12:12:45;101491.78;;;28.32;37.11
46690;BME280;32423;45.398;10.874;2022-10-16T12:15:31;101495.56;;;29.36;36.00
46690;BME280;32423;45.398;10.874;2022-10-16T12:18:23;101483.56;;;31.49;32.43
46690;BME280;32423;45.398;10.874;2022-10-16T12:21:07;101493.00;;;32.33;30.43
46690;BME280;32423;45.398;10.874;2022-10-16T12:23:53;101481.94;;;31.80;31.47
46690;BME280;32423;45.398;10.874;2022-10-16T12:26:39;101495.59;;;33.32;28.50
46690;BME280;32423;45.398;10.874;2022-10-16T12:29:34;101487.81;;;31.86;31.39
46690;BME280;32423;45.398;10.874;2022-10-16T12:35:26;101489.44;;;30.11;34.38
46690;BME280;32423;45.398;10.874;2022-10-16T12:38:18;101485.97;;;28.16;37.66
46690;BME280;32423;45.398;10.874;2022-10-16T12:41:05;101485.25;;;29.03;36.54
46690;BME280;32423;45.398;10.874;2022-10-16T12:43:52;101490.78;;;32.11;32.34
46690;BME280;32423;45.398;10.874;2022-10-16T12:46:38;101503.06;;;36.62;24.29
46690;BME280;32423;45.398;10.874;2022-10-16T12:49:31;101499.59;;;34.99;25.94
46690;BME280;32423;45.398;10.874;2022-10-16T12:52:23;101498.47;;;37.06;24.08
46690;BME280;32423;45.398;10.874;2022-10-16T12:55:12;101496.22;;;34.61;26.62
46690;BME280;32423;45.398;10.874;2022-10-16T12:58:09;101491.50;;;29.41;34.36
46690;BME280;32423;45.398;10.874;2022-10-16T13:00:57;101481.88;;;27.42;38.80
46690;BME280;32423;45.398;10.874;2022-10-16T13:09:28;101502.81;;;30.03;34.35
46690;BME280;32423;45.398;10.874;2022-10-16T13:18:22;101504.31;;;34.50;26.82
46690;BME280;32423;45.398;10.874;2022-10-16T13:23:59;101493.03;;;32.16;30.06
46690;BME280;32423;45.398;10.874;2022-10-16T13:29:31;101508.50;;;34.89;26.03
46690;BME280;32423;45.398;10.874;2022-10-16T13:32:16;101507.94;;;34.50;25.91
46690;BME280;32423;45.398;10.874;2022-10-16T13:35:01;101508.88;;;34.25;26.47
46690;BME280;32423;45.398;10.874;2022-10-16T13:37:45;101499.22;;;32.53;28.68
46690;BME280;32423;45.398;10.874;2022-10-16T13:40:29;101506.03;;;33.69;27.44
46690;BME280;32423;45.398;10.874;2022-10-16T13:43:14;101505.00;;;33.63;27.37
46690;BME280;32423;45.398;10.874;2022-10-16T13:46:12;101504.69;;;30.69;31.36
46690;BME280;32423;45.398;10.874;2022-10-16T13:48:58;101503.00;;;29.93;32.92
46690;BME280;32423;45.398;10.874;2022-10-16T13:51:56;101498.88;;;30.60;32.13
46690;BME280;32423;45.398;10.874;2022-10-16T13:54:40;101500.53;;;30.77;32.31
46690;BME280;32423;45.398;10.874;2022-10-16T13:57:25;101504.38;;;30.83;31.93
46690;BME280;32423;45.398;10.874;2022-10-16T14:03:11;101512.13;;;33.42;27.88
46690;BME280;32423;45.398;10.874;2022-10-16T14:05:59;101503.09;;;30.09;32.75
46690;BME280;32423;45.398;10.874;2022-10-16T14:08:45;101510.56;;;29.72;34.04
46690;BME280;32423;45.398;10.874;2022-10-16T14:11:32;101502.34;;;28.85;35.06
46690;BME280;32423;45.398;10.874;2022-10-16T14:14:21;101497.88;;;30.50;32.41
46690;BME280;32423;45.398;10.874;2022-10-16T14:17:06;101504.28;;;31.55;30.83
46690;BME280;32423;45.398;10.874;2022-10-16T14:19:58;101508.47;;;31.96;30.31
46690;BME280;32423;45.398;10.874;2022-10-16T14:22:43;101511.03;;;29.17;33.96
46690;BME280;32423;45.398;10.874;2022-10-16T14:25:29;101510.00;;;29.58;33.42
46690;BME280;32423;45.398;10.874;2022-10-16T14:28:15;101507.47;;;31.09;31.27
46690;BME280;32423;45.398;10.874;2022-10-16T14:31:01;101513.00;;;31.12;31.01
46690;BME280;32423;45.398;10.874;2022-10-16T14:33:46;101510.88;;;29.01;34.79
46690;BME280;32423;45.398;10.874;2022-10-16T14:36:31;101504.19;;;27.93;35.45
46690;BME280;32423;45.398;10.874;2022-10-16T14:39:18;101502.88;;;29.53;33.10
46690;BME280;32423;45.398;10.874;2022-10-16T14:42:03;101514.84;;;30.83;31.34
46690;BME280;32423;45.398;10.874;2022-10-16T14:44:48;101516.50;;;30.41;31.75
46690;BME280;32423;45.398;10.874;2022-10-16T14:47:34;101509.88;;;30.71;31.13
46690;BME280;32423;45.398;10.874;2022-10-16T14:50:22;101503.00;;;29.93;31.95
46690;BME280;32423;45.398;10.874;2022-10-16T14:53:13;101501.78;;;29.94;32.24
46690;BME280;32423;45.398;10.874;2022-10-16T14:55:57;101499.00;;;28.63;34.21
46690;BME280;32423;45.398;10.874;2022-10-16T14:58:42;101496.91;;;27.99;36.12
46690;BME280;32423;45.398;10.874;2022-10-16T15:01:26;101492.28;;;27.38;38.00
46690;BME280;32423;45.398;10.874;2022-10-16T15:04:11;101496.53;;;25.43;42.56
46690;BME280;32423;45.398;10.874;2022-10-16T15:06:57;101498.84;;;26.30;40.84
46690;BME280;32423;45.398;10.874;2022-10-16T15:09:41;101494.56;;;25.33;42.68
46690;BME280;32423;45.398;10.874;2022-10-16T15:12:26;101507.53;;;24.80;43.46
46690;BME280;32423;45.398;10.874;2022-10-16T15:18:07;101495.41;;;24.29;44.56
46690;BME280;32423;45.398;10.874;2022-10-16T15:20:51;101495.78;;;23.66;45.96
46690;BME280;32423;45.398;10.874;2022-10-16T15:23:36;101498.59;;;23.70;46.12
46690;BME280;32423;45.398;10.874;2022-10-16T15:26:21;101496.28;;;23.82;46.21
46690;BME280;32423;45.398;10.874;2022-10-16T15:29:05;101499.56;;;23.99;47.09
46690;BME280;32423;45.398;10.874;2022-10-16T15:31:49;101502.41;;;24.06;46.46
46690;BME280;32423;45.398;10.874;2022-10-16T15:34:35;101507.47;;;23.93;46.83